Time;durP1;ratioP1;P1;durP2;ratioP2;P2;SDS_P1;SDS_P2;PMS_P1;PMS_P2;Temp;Humidity;BMP_temperature;BMP_pressure;BME280_temperature;BME280_humidity;BME280_pressure;Samples;Min_cycle;Max_cycle;Signal;HPM_P1;HPM_P2
2023/10/19 00:00:36;;;;;;;23.17;6.63;;;;;;;;;;4994993;28;20471;-79
2023/10/19 00:03:03;;;;;;;21.63;6.40;;;;;;;;;;4995125;28;20432;-79
2023/10/19 00:05:32;;;;;;;21.88;7.20;;;;;;;;;;4988508;28;20415;-79
2023/10/19 00:07:59;;;;;;;23.52;7.40;;;;;;;;;;5011485;28;20769;-79
2023/10/19 00:10:32;;;;;;;21.88;6.82;;;;;;;;;;4994983;28;20499;-79
2023/10/19 00:13:04;;;;;;;22.90;7.28;;;;;;;;;;5010249;28;20409;-80
2023/10/19 00:15:32;;;;;;;23.15;7.10;;;;;;;;;;4997691;28;20409;-78
2023/10/19 00:23:18;;;;;;;23.17;7.68;;;;;;;;;;5011759;28;20413;-78
2023/10/19 00:25:50;;;;;;;21.55;7.05;;;;;;;;;;4994789;28;20474;-79
2023/10/19 00:28:17;;;;;;;23.20;7.82;;;;;;;;;;5013083;28;20408;-79
2023/10/19 00:30:45;;;;;;;23.20;7.20;;;;;;;;;;5008479;28;20470;-79
2023/10/19 00:33:20;;;;;;;22.23;7.17;;;;;;;;;;4993523;28;20423;-79
2023/10/19 00:35:47;;;;;;;23.45;7.40;;;;;;;;;;5009277;28;20413;-80
2023/10/19 00:41:04;;;;;;;24.27;6.80;;;;;;;;;;5011986;28;20409;-78
2023/10/19 00:43:42;;;;;;;23.20;7.63;;;;;;;;;;5010144;28;20592;-80
2023/10/19 00:48:59;;;;;;;23.50;7.10;;;;;;;;;;4965319;28;20429;-79
2023/10/19 00:54:07;;;;;;;23.42;8.32;;;;;;;;;;4995052;28;20470;-80
2023/10/19 00:56:35;;;;;;;22.35;7.20;;;;;;;;;;5011542;28;20844;-80
2023/10/19 00:59:38;;;;;;;24.20;7.97;;;;;;;;;;4986711;28;20532;-80
2023/10/19 01:01:57;;;;;;;23.92;8.02;;;;;;;;;;4985178;28;20424;-80
2023/10/19 01:04:31;;;;;;;23.75;7.90;;;;;;;;;;4994390;28;20421;-79
2023/10/19 01:07:06;;;;;;;23.90;8.05;;;;;;;;;;5008900;28;20443;-81
2023/10/19 01:09:35;;;;;;;22.45;7.63;;;;;;;;;;5011425;28;20428;-80
2023/10/19 01:12:21;;;;;;;24.45;7.88;;;;;;;;;;4999339;28;20413;-80
2023/10/19 01:15:00;;;;;;;23.90;7.63;;;;;;;;;;4992135;28;20420;-80
2023/10/19 01:17:26;;;;;;;26.20;8.50;;;;;;;;;;4993915;28;20810;-81
2023/10/19 01:19:55;;;;;;;22.25;7.70;;;;;;;;;;4994517;28;20425;-81
2023/10/19 01:22:26;;;;;;;24.35;7.78;;;;;;;;;;4994104;28;20504;-80
2023/10/19 01:24:55;;;;;;;23.77;7.63;;;;;;;;;;4993500;28;20413;-79
2023/10/19 01:27:22;;;;;;;23.97;7.70;;;;;;;;;;5011938;28;20912;-79
2023/10/19 01:29:59;;;;;;;22.70;7.78;;;;;;;;;;4994392;28;20512;-78
2023/10/19 01:32:28;;;;;;;25.63;7.97;;;;;;;;;;5010630;28;20540;-79
2023/10/19 01:34:55;;;;;;;24.23;8.43;;;;;;;;;;4976329;28;20990;-80
2023/10/19 01:37:21;;;;;;;21.85;7.03;;;;;;;;;;4997181;28;20424;-80
2023/10/19 01:39:48;;;;;;;25.70;7.63;;;;;;;;;;5012869;28;20415;-80
2023/10/19 01:42:17;;;;;;;22.17;7.45;;;;;;;;;;5009624;28;20511;-81
2023/10/19 01:44:44;;;;;;;24.58;7.30;;;;;;;;;;4995106;28;20461;-80
2023/10/19 01:47:11;;;;;;;25.00;7.80;;;;;;;;;;5001858;28;20412;-80
2023/10/19 01:49:38;;;;;;;22.80;7.43;;;;;;;;;;4995764;28;20510;-80
2023/10/19 01:52:04;;;;;;;22.20;7.57;;;;;;;;;;5009389;28;20407;-81
2023/10/19 01:54:31;;;;;;;22.10;7.28;;;;;;;;;;4979562;28;20539;-80
2023/10/19 01:56:58;;;;;;;21.98;7.90;;;;;;;;;;4992606;28;20511;-80
2023/10/19 01:59:27;;;;;;;22.90;7.50;;;;;;;;;;5009337;28;20470;-81
2023/10/19 02:01:54;;;;;;;22.30;7.00;;;;;;;;;;4985615;28;20440;-79
2023/10/19 02:04:22;;;;;;;25.92;6.82;;;;;;;;;;4980727;28;20420;-79
2023/10/19 02:06:52;;;;;;;22.85;7.30;;;;;;;;;;4977495;28;20420;-79
2023/10/19 02:11:46;;;;;;;26.00;7.50;;;;;;;;;;4993352;28;20431;-80
2023/10/19 02:14:14;;;;;;;22.77;6.93;;;;;;;;;;4992498;28;20428;-81
2023/10/19 02:16:43;;;;;;;23.20;6.63;;;;;;;;;;5009058;28;20414;-80
2023/10/19 02:19:10;;;;;;;21.40;6.60;;;;;;;;;;4993350;28;20420;-79
2023/10/19 02:21:39;;;;;;;22.00;7.03;;;;;;;;;;4998123;28;20445;-79
2023/10/19 02:24:07;;;;;;;21.33;7.03;;;;;;;;;;4980161;28;20444;-79
2023/10/19 02:26:34;;;;;;;20.92;7.10;;;;;;;;;;4992823;28;20822;-80
2023/10/19 02:29:07;;;;;;;24.05;7.65;;;;;;;;;;5011747;28;20467;-80
2023/10/19 02:31:33;;;;;;;21.55;6.80;;;;;;;;;;4992403;28;20444;-81
2023/10/19 02:34:01;;;;;;;23.90;7.30;;;;;;;;;;4992768;28;20417;-79
2023/10/19 02:36:30;;;;;;;24.05;7.13;;;;;;;;;;4988528;28;20502;-80
2023/10/19 02:39:07;;;;;;;22.55;7.20;;;;;;;;;;5008770;28;20409;-80
2023/10/19 02:41:35;;;;;;;22.23;7.70;;;;;;;;;;4993090;28;20496;-78
2023/10/19 02:44:09;;;;;;;20.55;6.55;;;;;;;;;;4993073;28;20516;-79
2023/10/19 02:46:39;;;;;;;22.17;7.67;;;;;;;;;;5008827;28;20404;-79
2023/10/19 02:49:11;;;;;;;22.98;6.70;;;;;;;;;;4995173;28;20915;-80
2023/10/19 02:51:38;;;;;;;23.00;6.70;;;;;;;;;;4991590;28;20413;-81
2023/10/19 02:54:07;;;;;;;21.40;6.88;;;;;;;;;;5001252;28;20440;-80
2023/10/19 02:56:35;;;;;;;22.73;7.97;;;;;;;;;;4980276;28;20413;-79
2023/10/19 02:59:03;;;;;;;22.83;7.00;;;;;;;;;;5000211;28;20408;-80
2023/10/19 03:01:34;;;;;;;23.58;7.38;;;;;;;;;;5014160;28;20873;-80
2023/10/19 03:04:02;;;;;;;23.40;6.80;;;;;;;;;;5011901;28;20420;-80
2023/10/19 03:06:33;;;;;;;22.73;7.10;;;;;;;;;;5011692;28;20885;-79
2023/10/19 03:09:22;;;;;;;20.98;5.97;;;;;;;;;;5013015;28;20506;-79
2023/10/19 03:11:53;;;;;;;20.10;6.07;;;;;;;;;;4993587;28;20540;-80
2023/10/19 03:14:20;;;;;;;22.05;6.90;;;;;;;;;;4995876;28;20828;-81
2023/10/19 03:16:47;;;;;;;23.98;6.90;;;;;;;;;;4996818;28;20671;-78
2023/10/19 03:19:14;;;;;;;20.85;6.40;;;;;;;;;;5015074;28;20409;-79
2023/10/19 03:21:49;;;;;;;20.67;6.35;;;;;;;;;;4995726;28;20424;-79
2023/10/19 03:27:01;;;;;;;22.20;7.00;;;;;;;;;;4998029;28;20516;-79
2023/10/19 03:29:31;;;;;;;20.25;6.10;;;;;;;;;;5011493;28;20904;-79
2023/10/19 03:32:02;;;;;;;23.58;7.30;;;;;;;;;;4997021;28;20471;-79
2023/10/19 03:34:32;;;;;;;20.90;6.55;;;;;;;;;;5013157;28;20913;-78
2023/10/19 03:37:07;;;;;;;20.27;6.10;;;;;;;;;;4994024;28;20501;-78
2023/10/19 03:39:37;;;;;;;19.10;5.88;;;;;;;;;;5017562;28;20409;-79
2023/10/19 03:42:08;;;;;;;23.98;6.07;;;;;;;;;;5012972;28;20790;-79
2023/10/19 03:47:18;;;;;;;21.10;6.20;;;;;;;;;;5007540;28;20436;-80
2023/10/19 03:49:46;;;;;;;21.70;6.32;;;;;;;;;;4996920;28;20432;-81
2023/10/19 03:54:41;;;;;;;22.35;7.40;;;;;;;;;;5014427;28;20507;-79
2023/10/19 03:57:19;;;;;;;19.83;5.60;;;;;;;;;;5008287;28;20421;-80
2023/10/19 03:59:49;;;;;;;18.92;5.57;;;;;;;;;;4995584;28;20419;-79
2023/10/19 04:02:16;;;;;;;20.15;5.93;;;;;;;;;;4995844;28;20425;-80
2023/10/19 04:04:43;;;;;;;21.17;6.00;;;;;;;;;;4994719;28;20503;-79
2023/10/19 04:07:16;;;;;;;20.90;6.13;;;;;;;;;;5012793;28;20507;-80
2023/10/19 04:09:57;;;;;;;23.00;5.40;;;;;;;;;;5012484;28;20405;-78
2023/10/19 04:12:24;;;;;;;19.60;5.60;;;;;;;;;;4994358;28;20419;-79
2023/10/19 04:14:51;;;;;;;20.30;5.50;;;;;;;;;;4987526;28;20424;-80
2023/10/19 04:17:21;;;;;;;19.50;5.20;;;;;;;;;;5002299;28;20409;-81
2023/10/19 04:19:55;;;;;;;21.23;5.60;;;;;;;;;;4990272;28;20428;-80
2023/10/19 04:22:24;;;;;;;20.42;5.47;;;;;;;;;;5010195;28;20409;-80
2023/10/19 04:24:53;;;;;;;19.77;5.10;;;;;;;;;;4994361;28;20413;-80
2023/10/19 04:27:23;;;;;;;20.95;5.65;;;;;;;;;;5011988;28;20408;-79
2023/10/19 04:29:50;;;;;;;19.65;5.45;;;;;;;;;;4996475;28;20419;-80
2023/10/19 04:32:25;;;;;;;18.80;5.22;;;;;;;;;;5000297;28;20500;-79
2023/10/19 04:34:52;;;;;;;20.10;5.80;;;;;;;;;;5009153;28;20420;-81
2023/10/19 04:37:19;;;;;;;20.88;5.97;;;;;;;;;;4998187;28;20504;-78
2023/10/19 04:39:46;;;;;;;21.70;5.50;;;;;;;;;;5004311;28;20954;-80
2023/10/19 04:42:14;;;;;;;21.33;5.50;;;;;;;;;;5010580;28;20441;-82
2023/10/19 04:44:41;;;;;;;19.70;6.18;;;;;;;;;;5011757;28;20413;-79
2023/10/19 04:47:07;;;;;;;20.25;5.38;;;;;;;;;;4994350;28;20776;-78
2023/10/19 04:49:34;;;;;;;20.20;5.78;;;;;;;;;;4997120;28;20412;-80
2023/10/19 04:52:00;;;;;;;21.63;5.43;;;;;;;;;;4994923;28;20423;-77
2023/10/19 04:54:27;;;;;;;20.40;5.63;;;;;;;;;;5012733;28;20420;-79
2023/10/19 04:56:55;;;;;;;22.40;5.47;;;;;;;;;;4994799;28;20409;-79
2023/10/19 04:59:23;;;;;;;21.63;5.90;;;;;;;;;;4992540;28;20996;-78
2023/10/19 05:01:50;;;;;;;20.30;5.40;;;;;;;;;;4992468;28;20413;-78
2023/10/19 05:04:17;;;;;;;20.55;5.90;;;;;;;;;;5004969;28;20888;-79
2023/10/19 05:06:43;;;;;;;21.60;6.00;;;;;;;;;;4995109;28;20476;-77
2023/10/19 05:09:12;;;;;;;20.42;5.40;;;;;;;;;;5002142;28;20939;-80
2023/10/19 05:11:39;;;;;;;20.73;5.88;;;;;;;;;;4993156;28;20413;-78
2023/10/19 05:14:06;;;;;;;21.40;5.95;;;;;;;;;;4999665;28;20440;-78
2023/10/19 05:16:34;;;;;;;20.25;5.70;;;;;;;;;;4983381;28;20793;-79
2023/10/19 05:19:01;;;;;;;20.70;5.40;;;;;;;;;;4992303;28;20420;-80
2023/10/19 05:21:30;;;;;;;22.17;6.57;;;;;;;;;;5011014;28;20444;-78
2023/10/19 05:23:56;;;;;;;21.95;6.07;;;;;;;;;;5011555;28;20772;-80
2023/10/19 05:26:23;;;;;;;21.42;5.88;;;;;;;;;;4994213;28;20413;-79
2023/10/19 05:28:49;;;;;;;20.67;5.55;;;;;;;;;;4995846;28;20417;-79
2023/10/19 05:31:16;;;;;;;19.10;5.37;;;;;;;;;;5000089;28;20417;-79
2023/10/19 05:33:44;;;;;;;21.15;6.32;;;;;;;;;;4994336;28;20413;-79
2023/10/19 05:36:10;;;;;;;24.30;6.53;;;;;;;;;;4993524;28;20540;-80
2023/10/19 05:38:38;;;;;;;21.75;5.70;;;;;;;;;;5005546;28;20484;-77
2023/10/19 05:41:05;;;;;;;20.00;5.90;;;;;;;;;;4999374;28;20452;-78
2023/10/19 05:43:33;;;;;;;23.85;6.65;;;;;;;;;;5011313;28;20409;-78
2023/10/19 05:46:00;;;;;;;22.77;5.20;;;;;;;;;;4994209;28;20455;-79
2023/10/19 05:48:26;;;;;;;21.93;5.90;;;;;;;;;;4994419;28;20445;-79
2023/10/19 05:50:54;;;;;;;20.10;5.47;;;;;;;;;;5008356;28;20444;-80
2023/10/19 05:53:22;;;;;;;20.57;5.67;;;;;;;;;;5011021;28;20495;-78
2023/10/19 05:55:49;;;;;;;24.33;5.72;;;;;;;;;;4991249;28;20516;-77
2023/10/19 05:58:16;;;;;;;20.50;6.00;;;;;;;;;;4993888;28;20451;-80
2023/10/19 06:00:42;;;;;;;25.88;6.47;;;;;;;;;;5012877;28;20441;-77
2023/10/19 06:03:09;;;;;;;22.50;5.90;;;;;;;;;;5012882;28;20441;-79
2023/10/19 06:05:36;;;;;;;20.42;6.03;;;;;;;;;;4999352;28;20513;-81
2023/10/19 06:08:04;;;;;;;21.13;6.10;;;;;;;;;;4994503;28;20414;-80
2023/10/19 06:10:32;;;;;;;20.15;5.50;;;;;;;;;;4994586;28;20904;-80
2023/10/19 06:12:58;;;;;;;20.98;6.00;;;;;;;;;;4989647;28;20427;-80
2023/10/19 06:15:25;;;;;;;23.23;6.63;;;;;;;;;;4996036;28;20420;-79
2023/10/19 06:17:52;;;;;;;21.20;6.00;;;;;;;;;;4992201;28;20417;-80
2023/10/19 06:20:19;;;;;;;19.83;6.00;;;;;;;;;;4992494;28;20423;-80
2023/10/19 06:22:49;;;;;;;21.00;6.10;;;;;;;;;;4976929;28;20421;-79
2023/10/19 06:25:18;;;;;;;20.80;6.00;;;;;;;;;;4994762;28;21292;-81
2023/10/19 06:27:45;;;;;;;20.65;5.70;;;;;;;;;;4994389;28;20420;-81
2023/10/19 06:30:17;;;;;;;20.83;6.80;;;;;;;;;;4994512;28;20417;-81
2023/10/19 06:32:45;;;;;;;22.60;6.37;;;;;;;;;;4991958;28;20947;-81
2023/10/19 06:35:12;;;;;;;23.70;6.20;;;;;;;;;;5009321;28;20413;-80
2023/10/19 06:37:40;;;;;;;21.50;6.80;;;;;;;;;;5005321;28;20423;-82
2023/10/19 06:40:07;;;;;;;21.00;6.10;;;;;;;;;;5010076;28;20404;-81
2023/10/19 06:42:35;;;;;;;25.50;6.85;;;;;;;;;;5010417;28;20455;-79
2023/10/19 06:45:02;;;;;;;20.90;6.27;;;;;;;;;;5010572;28;20936;-79
2023/10/19 06:47:29;;;;;;;20.80;6.40;;;;;;;;;;4992408;28;20421;-79
2023/10/19 06:49:56;;;;;;;20.33;5.50;;;;;;;;;;4976823;28;20918;-79
2023/10/19 06:52:22;;;;;;;21.37;6.63;;;;;;;;;;4981108;28;20413;-79
2023/10/19 06:54:49;;;;;;;20.02;5.82;;;;;;;;;;4980103;28;20434;-79
2023/10/19 06:57:16;;;;;;;21.50;6.40;;;;;;;;;;5008812;28;20505;-81
2023/10/19 06:59:44;;;;;;;21.13;5.90;;;;;;;;;;5010455;28;20421;-80
2023/10/19 07:02:12;;;;;;;23.17;6.90;;;;;;;;;;4993893;28;20523;-81
2023/10/19 07:04:39;;;;;;;22.13;6.70;;;;;;;;;;4996463;28;20425;-78
2023/10/19 07:07:06;;;;;;;24.65;6.95;;;;;;;;;;4976219;28;20849;-78
2023/10/19 07:09:34;;;;;;;22.10;6.80;;;;;;;;;;5007845;28;20415;-78
2023/10/19 07:12:01;;;;;;;26.02;7.93;;;;;;;;;;5008971;28;20504;-80
2023/10/19 07:14:28;;;;;;;21.48;6.40;;;;;;;;;;5008210;28;20964;-79
2023/10/19 07:16:56;;;;;;;23.73;7.20;;;;;;;;;;4991300;28;20424;-80
2023/10/19 07:19:23;;;;;;;23.13;7.03;;;;;;;;;;4995750;28;20418;-76
2023/10/19 07:21:53;;;;;;;22.35;7.05;;;;;;;;;;4995370;28;20421;-81
2023/10/19 07:24:23;;;;;;;20.97;6.53;;;;;;;;;;5010104;28;20487;-81
2023/10/19 07:26:53;;;;;;;22.52;6.65;;;;;;;;;;5008270;28;20404;-80
2023/10/19 07:29:20;;;;;;;22.13;7.30;;;;;;;;;;4992255;28;20413;-79
2023/10/19 07:31:47;;;;;;;21.65;7.32;;;;;;;;;;5008298;28;20554;-81
2023/10/19 07:34:15;;;;;;;21.90;6.50;;;;;;;;;;4994106;28;20795;-81
2023/10/19 07:36:42;;;;;;;21.70;6.70;;;;;;;;;;4991605;28;20428;-81
2023/10/19 07:39:13;;;;;;;21.60;6.13;;;;;;;;;;5004059;28;20438;-80
2023/10/19 07:41:40;;;;;;;22.55;6.13;;;;;;;;;;4996693;28;20812;-79
2023/10/19 07:44:07;;;;;;;24.20;5.93;;;;;;;;;;4990658;28;20589;-80
2023/10/19 07:46:34;;;;;;;20.85;6.65;;;;;;;;;;4993536;28;20408;-79
2023/10/19 07:49:03;;;;;;;22.17;6.10;;;;;;;;;;5015364;28;20459;-80
2023/10/19 07:51:31;;;;;;;23.20;6.30;;;;;;;;;;5015045;28;20411;-79
2023/10/19 07:53:58;;;;;;;22.50;6.00;;;;;;;;;;4995537;28;20419;-80
2023/10/19 07:56:24;;;;;;;20.47;6.00;;;;;;;;;;5012630;28;20897;-78
2023/10/19 07:58:51;;;;;;;22.20;5.78;;;;;;;;;;5013855;28;20470;-80
2023/10/19 08:01:18;;;;;;;21.10;5.50;;;;;;;;;;4993843;28;20422;-79
2023/10/19 08:03:44;;;;;;;21.25;6.03;;;;;;;;;;5014566;28;20417;-81
2023/10/19 08:06:12;;;;;;;18.60;5.43;;;;;;;;;;5011446;28;20400;-80
2023/10/19 08:08:41;;;;;;;19.40;5.40;;;;;;;;;;4996347;28;20504;-81
2023/10/19 08:11:08;;;;;;;19.42;5.50;;;;;;;;;;5013604;28;20412;-80
2023/10/19 08:13:35;;;;;;;21.50;6.38;;;;;;;;;;5012834;28;20888;-81
2023/10/19 08:16:02;;;;;;;19.88;5.30;;;;;;;;;;5002174;28;20904;-81
2023/10/19 08:18:30;;;;;;;19.00;5.25;;;;;;;;;;5012971;28;20423;-80
2023/10/19 08:20:57;;;;;;;21.77;6.20;;;;;;;;;;5009929;28;20497;-81
2023/10/19 08:23:27;;;;;;;20.77;5.70;;;;;;;;;;5013480;28;20924;-79
2023/10/19 08:25:55;;;;;;;22.30;5.10;;;;;;;;;;5011986;28;20536;-79
2023/10/19 08:28:23;;;;;;;24.42;5.60;;;;;;;;;;4994308;28;20575;-80
2023/10/19 08:30:56;;;;;;;19.00;5.10;;;;;;;;;;5012566;28;20413;-79
2023/10/19 08:33:25;;;;;;;19.45;5.10;;;;;;;;;;4995757;28;20462;-78
2023/10/19 08:35:53;;;;;;;20.15;4.60;;;;;;;;;;5012403;28;20452;-81
2023/10/19 08:38:20;;;;;;;18.70;4.60;;;;;;;;;;4991076;28;20880;-80
2023/10/19 08:40:47;;;;;;;20.95;5.32;;;;;;;;;;5010130;28;20495;-79
2023/10/19 08:43:18;;;;;;;18.52;4.47;;;;;;;;;;5011855;28;20911;-80
2023/10/19 08:45:45;;;;;;;19.58;4.72;;;;;;;;;;5012073;28;20407;-78
2023/10/19 08:48:12;;;;;;;17.58;4.22;;;;;;;;;;5012255;28;20448;-79
2023/10/19 08:50:38;;;;;;;20.08;4.15;;;;;;;;;;5014923;28;20451;-79
2023/10/19 08:53:08;;;;;;;21.65;4.43;;;;;;;;;;5011414;28;20409;-76
2023/10/19 08:55:35;;;;;;;17.87;3.50;;;;;;;;;;5012199;28;20420;-78
2023/10/19 08:58:05;;;;;;;18.63;3.90;;;;;;;;;;5009236;28;20429;-78
2023/10/19 09:00:44;;;;;;;18.33;3.80;;;;;;;;;;4996924;28;20424;-79
2023/10/19 09:03:14;;;;;;;19.08;3.75;;;;;;;;;;5011231;28;20419;-80
2023/10/19 09:05:41;;;;;;;17.10;3.40;;;;;;;;;;5010080;28;21323;-78
2023/10/19 09:08:09;;;;;;;19.63;3.30;;;;;;;;;;4999733;28;20503;-80
2023/10/19 09:10:36;;;;;;;18.80;3.10;;;;;;;;;;5011734;28;20414;-81
2023/10/19 09:13:04;;;;;;;18.90;2.92;;;;;;;;;;5011168;28;20409;-78
2023/10/19 09:15:34;;;;;;;20.50;3.22;;;;;;;;;;4991781;28;20448;-80
2023/10/19 09:18:12;;;;;;;19.55;3.72;;;;;;;;;;4995941;28;20428;-78
2023/10/19 09:20:38;;;;;;;16.40;2.65;;;;;;;;;;5011366;28;20496;-78
2023/10/19 09:23:07;;;;;;;17.50;3.50;;;;;;;;;;4993401;28;20784;-78
2023/10/19 09:25:35;;;;;;;19.50;2.70;;;;;;;;;;4993672;28;20412;-79
2023/10/19 09:28:05;;;;;;;21.00;2.90;;;;;;;;;;5010987;28;20436;-79
2023/10/19 09:30:32;;;;;;;15.85;2.50;;;;;;;;;;4996773;28;20423;-79
2023/10/19 09:32:58;;;;;;;18.67;2.90;;;;;;;;;;5010749;28;20419;-79
2023/10/19 09:35:27;;;;;;;16.65;2.88;;;;;;;;;;5007839;28;20417;-79
2023/10/19 09:37:54;;;;;;;19.27;3.00;;;;;;;;;;5010735;28;20432;-78
2023/10/19 09:40:21;;;;;;;17.75;2.97;;;;;;;;;;5013420;28;20467;-79
2023/10/19 09:42:53;;;;;;;18.90;2.60;;;;;;;;;;4991592;28;21004;-80
2023/10/19 09:45:20;;;;;;;17.90;2.75;;;;;;;;;;4993015;28;20500;-79
2023/10/19 09:47:49;;;;;;;20.05;2.30;;;;;;;;;;5014409;28;20524;-79
2023/10/19 09:50:16;;;;;;;17.85;2.10;;;;;;;;;;4996225;28;20435;-78
2023/10/19 09:52:44;;;;;;;18.08;2.50;;;;;;;;;;4993246;28;20411;-77
2023/10/19 09:55:13;;;;;;;15.93;1.70;;;;;;;;;;5011997;28;20419;-79
2023/10/19 09:57:46;;;;;;;16.60;2.00;;;;;;;;;;5008977;28;20495;-79
2023/10/19 10:00:13;;;;;;;16.40;2.00;;;;;;;;;;5008901;28;20405;-78
2023/10/19 10:02:42;;;;;;;17.63;2.10;;;;;;;;;;5010695;28;20448;-79
2023/10/19 10:05:33;;;;;;;17.90;2.10;;;;;;;;;;5010211;28;20822;-76
2023/10/19 10:08:18;;;;;;;19.95;2.83;;;;;;;;;;4996177;28;20507;-78
2023/10/19 10:10:49;;;;;;;17.45;2.00;;;;;;;;;;5009521;28;20416;-79
2023/10/19 10:13:34;;;;;;;18.55;1.98;;;;;;;;;;5010957;28;20413;-80
2023/10/19 10:16:02;;;;;;;17.15;2.22;;;;;;;;;;4994209;28;20403;-78
2023/10/19 10:18:31;;;;;;;17.10;1.70;;;;;;;;;;5011666;28;20424;-76
2023/10/19 10:21:10;;;;;;;20.05;1.80;;;;;;;;;;4992373;28;20453;-73
2023/10/19 10:23:40;;;;;;;17.35;2.25;;;;;;;;;;5024412;28;20425;-77
2023/10/19 10:26:09;;;;;;;16.70;1.90;;;;;;;;;;5010525;28;20912;-75
2023/10/19 10:28:36;;;;;;;24.95;2.60;;;;;;;;;;4996301;28;20428;-77
2023/10/19 10:31:08;;;;;;;17.02;1.80;;;;;;;;;;5012398;28;20773;-76
2023/10/19 10:33:41;;;;;;;15.82;1.80;;;;;;;;;;5005106;28;20427;-76
2023/10/19 10:36:10;;;;;;;16.80;1.50;;;;;;;;;;5011600;28;20452;-76
2023/10/19 10:38:37;;;;;;;15.93;1.92;;;;;;;;;;5013117;28;20941;-76
2023/10/19 10:41:04;;;;;;;18.10;2.10;;;;;;;;;;4994449;28;20405;-77
2023/10/19 10:43:33;;;;;;;15.85;2.00;;;;;;;;;;5000173;28;20409;-75
2023/10/19 10:46:04;;;;;;;17.65;2.00;;;;;;;;;;4993576;28;20404;-76
2023/10/19 10:48:30;;;;;;;18.07;1.97;;;;;;;;;;5005735;28;20420;-76
2023/10/19 10:50:57;;;;;;;17.85;1.98;;;;;;;;;;5016687;28;20412;-76
2023/10/19 10:53:26;;;;;;;17.60;2.00;;;;;;;;;;5008517;28;20416;-77
2023/10/19 10:55:53;;;;;;;17.40;2.10;;;;;;;;;;5011610;28;20405;-77
2023/10/19 10:58:21;;;;;;;18.77;2.10;;;;;;;;;;4994439;28;20424;-77
2023/10/19 11:00:54;;;;;;;19.27;1.90;;;;;;;;;;5003505;28;20429;-77
2023/10/19 11:03:24;;;;;;;17.70;2.17;;;;;;;;;;5003232;28;20837;-77
2023/10/19 11:05:51;;;;;;;16.35;2.30;;;;;;;;;;4990075;28;20517;-76
2023/10/19 11:08:21;;;;;;;20.23;2.10;;;;;;;;;;5009931;28;20416;-75
2023/10/19 11:10:48;;;;;;;17.37;2.10;;;;;;;;;;5003945;28;20415;-76
2023/10/19 11:13:16;;;;;;;16.80;1.90;;;;;;;;;;5013298;28;20412;-76
2023/10/19 11:15:48;;;;;;;19.27;2.00;;;;;;;;;;5014907;28;20408;-75
2023/10/19 11:18:29;;;;;;;18.83;1.80;;;;;;;;;;5003515;28;20428;-76
2023/10/19 11:20:58;;;;;;;18.50;1.85;;;;;;;;;;4997110;28;20988;-76
2023/10/19 11:23:39;;;;;;;18.15;2.10;;;;;;;;;;4983336;28;20404;-76
2023/10/19 11:26:06;;;;;;;17.40;1.90;;;;;;;;;;4997120;28;20450;-76
2023/10/19 11:28:34;;;;;;;21.95;2.30;;;;;;;;;;5008402;28;20416;-76
2023/10/19 11:31:16;;;;;;;16.65;2.10;;;;;;;;;;5014559;28;20956;-75
2023/10/19 11:33:45;;;;;;;17.70;2.00;;;;;;;;;;5005981;28;20428;-76
2023/10/19 11:36:14;;;;;;;16.50;2.22;;;;;;;;;;4996571;28;20596;-75
2023/10/19 11:38:41;;;;;;;17.80;2.20;;;;;;;;;;4998254;28;20524;-76
2023/10/19 11:41:10;;;;;;;16.52;1.98;;;;;;;;;;5016824;28;20414;-77
2023/10/19 11:43:37;;;;;;;16.05;1.83;;;;;;;;;;4997054;28;20887;-76
2023/10/19 11:46:06;;;;;;;15.80;1.70;;;;;;;;;;5007782;28;20427;-77
2023/10/19 11:48:34;;;;;;;16.25;1.85;;;;;;;;;;5014630;28;20409;-77
2023/10/19 11:51:03;;;;;;;17.40;1.88;;;;;;;;;;4995780;28;20423;-75
2023/10/19 11:53:33;;;;;;;17.45;2.10;;;;;;;;;;4997102;28;20750;-76
2023/10/19 11:56:00;;;;;;;18.92;1.95;;;;;;;;;;5002893;28;20410;-76
2023/10/19 11:58:28;;;;;;;15.98;2.13;;;;;;;;;;5004263;28;20450;-77
2023/10/19 12:00:55;;;;;;;18.70;2.95;;;;;;;;;;4996810;28;20933;-73
2023/10/19 12:03:22;;;;;;;17.67;2.53;;;;;;;;;;5010425;28;20828;-77
2023/10/19 12:05:48;;;;;;;17.38;2.30;;;;;;;;;;4997525;28;20452;-76
2023/10/19 12:08:17;;;;;;;17.23;1.73;;;;;;;;;;4995135;28;20502;-76
2023/10/19 12:10:43;;;;;;;19.05;2.08;;;;;;;;;;5016525;28;20765;-76
2023/10/19 12:13:10;;;;;;;16.20;1.65;;;;;;;;;;4998650;28;20422;-77
2023/10/19 12:15:37;;;;;;;17.00;1.95;;;;;;;;;;5002604;28;20431;-76
2023/10/19 12:18:05;;;;;;;17.88;1.90;;;;;;;;;;4984288;28;20421;-76
2023/10/19 12:20:32;;;;;;;18.88;1.80;;;;;;;;;;4997207;28;20421;-76
2023/10/19 12:23:00;;;;;;;17.80;2.17;;;;;;;;;;5014606;28;20746;-76
2023/10/19 12:25:29;;;;;;;20.63;1.67;;;;;;;;;;5014535;28;20409;-76
2023/10/19 12:28:13;;;;;;;17.60;2.08;;;;;;;;;;5004354;28;20408;-77
2023/10/19 12:30:41;;;;;;;19.63;2.60;;;;;;;;;;5005969;28;20465;-76
2023/10/19 12:33:11;;;;;;;16.27;1.83;;;;;;;;;;4996189;28;20424;-77
2023/10/19 12:38:33;;;;;;;19.52;3.13;;;;;;;;;;4987115;28;20884;-75
2023/10/19 12:41:01;;;;;;;16.02;2.00;;;;;;;;;;5014573;28;20408;-77
2023/10/19 12:43:30;;;;;;;17.08;2.13;;;;;;;;;;5013837;28;20508;-77
2023/10/19 12:46:01;;;;;;;15.30;2.30;;;;;;;;;;5000810;28;20475;-77
2023/10/19 12:48:33;;;;;;;20.15;2.20;;;;;;;;;;4977541;28;20427;-76
2023/10/19 12:51:01;;;;;;;19.60;2.00;;;;;;;;;;4995703;28;20919;-77
2023/10/19 12:53:29;;;;;;;16.23;1.77;;;;;;;;;;5005969;28;20470;-77
2023/10/19 12:55:56;;;;;;;17.25;1.80;;;;;;;;;;5017308;28;20478;-77
2023/10/19 12:58:25;;;;;;;16.42;2.20;;;;;;;;;;4989327;28;20464;-76
2023/10/19 13:00:54;;;;;;;17.30;1.80;;;;;;;;;;5002281;28;20433;-77
2023/10/19 13:03:23;;;;;;;17.83;1.75;;;;;;;;;;4997373;28;20975;-76
2023/10/19 13:05:50;;;;;;;15.50;1.50;;;;;;;;;;4995093;28;20879;-76
2023/10/19 13:08:18;;;;;;;17.33;1.75;;;;;;;;;;5016105;28;20423;-75
2023/10/19 13:10:48;;;;;;;16.90;2.10;;;;;;;;;;4997843;28;20743;-76
2023/10/19 13:13:15;;;;;;;19.48;2.53;;;;;;;;;;5007573;28;20405;-77
2023/10/19 13:15:44;;;;;;;19.25;2.40;;;;;;;;;;5004810;28;20506;-76
2023/10/19 13:18:19;;;;;;;16.42;2.70;;;;;;;;;;4996402;28;20437;-77
2023/10/19 13:20:48;;;;;;;17.47;2.20;;;;;;;;;;4998201;28;20421;-76
2023/10/19 13:23:22;;;;;;;15.48;2.08;;;;;;;;;;5016054;28;20813;-76
2023/10/19 13:26:07;;;;;;;19.80;2.60;;;;;;;;;;4994783;28;20495;-75
2023/10/19 13:28:39;;;;;;;20.00;2.50;;;;;;;;;;4994695;28;20413;-77
2023/10/19 13:31:09;;;;;;;18.60;2.50;;;;;;;;;;5015509;28;20408;-76
2023/10/19 13:33:37;;;;;;;20.75;2.60;;;;;;;;;;5000097;28;20413;-76
2023/10/19 13:36:05;;;;;;;18.17;2.97;;;;;;;;;;5010597;28;20420;-77
2023/10/19 13:38:32;;;;;;;18.80;3.10;;;;;;;;;;4993662;28;20432;-77
2023/10/19 13:41:02;;;;;;;19.27;2.45;;;;;;;;;;5011864;28;20424;-77
2023/10/19 13:43:30;;;;;;;21.40;2.80;;;;;;;;;;5011773;28;20413;-77
2023/10/19 13:46:01;;;;;;;18.92;3.08;;;;;;;;;;4995662;28;20415;-76
2023/10/19 13:48:39;;;;;;;21.38;3.20;;;;;;;;;;5014793;28;20424;-76
2023/10/19 13:51:14;;;;;;;21.35;3.25;;;;;;;;;;5000428;28;20466;-77
2023/10/19 13:53:42;;;;;;;22.80;3.50;;;;;;;;;;5008896;28;20776;-78
2023/10/19 13:56:11;;;;;;;21.25;2.60;;;;;;;;;;5006758;28;20411;-78
2023/10/19 13:58:42;;;;;;;23.90;4.40;;;;;;;;;;5025950;28;20747;-79
2023/10/19 14:01:12;;;;;;;17.73;2.67;;;;;;;;;;5020226;28;20417;-79
2023/10/19 14:03:46;;;;;;;18.57;2.83;;;;;;;;;;5009837;28;20463;-82
2023/10/19 14:06:13;;;;;;;18.00;3.00;;;;;;;;;;5010608;28;20817;-81
2023/10/19 14:08:41;;;;;;;21.90;3.00;;;;;;;;;;4994597;28;20459;-81
2023/10/19 14:11:09;;;;;;;18.13;2.70;;;;;;;;;;5004491;28;20455;-80
2023/10/19 14:13:36;;;;;;;19.80;3.40;;;;;;;;;;4994343;28;20413;-81
2023/10/19 14:16:07;;;;;;;18.52;3.85;;;;;;;;;;4992326;28;20433;-81
2023/10/19 14:18:35;;;;;;;21.10;3.28;;;;;;;;;;5012537;28;20435;-81
2023/10/19 14:21:13;;;;;;;19.60;3.72;;;;;;;;;;4996627;28;20428;-82
2023/10/19 14:23:40;;;;;;;19.05;2.97;;;;;;;;;;4992771;28;20411;-81
2023/10/19 14:26:09;;;;;;;19.45;3.22;;;;;;;;;;4994739;28;20413;-82
2023/10/19 14:28:37;;;;;;;20.33;3.40;;;;;;;;;;5013426;28;20412;-81
2023/10/19 14:31:07;;;;;;;18.98;3.05;;;;;;;;;;5009204;28;20420;-81
2023/10/19 14:33:35;;;;;;;20.10;3.10;;;;;;;;;;4993156;28;20483;-81
2023/10/19 14:36:02;;;;;;;19.40;3.00;;;;;;;;;;4993285;28;20420;-79
2023/10/19 14:38:31;;;;;;;20.58;2.92;;;;;;;;;;4978363;28;20527;-82
2023/10/19 14:40:57;;;;;;;19.65;3.30;;;;;;;;;;4996283;28;20423;-81
2023/10/19 14:43:29;;;;;;;20.10;3.90;;;;;;;;;;4977285;28;20424;-82
2023/10/19 14:45:57;;;;;;;21.77;4.10;;;;;;;;;;4991240;28;20422;-81
2023/10/19 14:48:25;;;;;;;17.42;3.47;;;;;;;;;;4990462;28;20412;-80
2023/10/19 14:50:57;;;;;;;18.77;3.45;;;;;;;;;;5015583;28;20491;-80
2023/10/19 14:53:24;;;;;;;19.37;3.60;;;;;;;;;;5009513;28;20605;-80
2023/10/19 14:55:54;;;;;;;22.65;3.50;;;;;;;;;;4996741;28;20503;-82
2023/10/19 14:58:21;;;;;;;19.85;3.80;;;;;;;;;;4996746;28;20590;-81
2023/10/19 15:00:54;;;;;;;20.40;4.53;;;;;;;;;;5004340;28;20444;-80
2023/10/19 15:03:23;;;;;;;19.98;3.65;;;;;;;;;;4997518;28;20804;-80
2023/10/19 15:05:51;;;;;;;21.20;3.30;;;;;;;;;;4993343;28;20446;-78
2023/10/19 15:08:19;;;;;;;16.90;3.43;;;;;;;;;;4997175;28;21437;-80